Time;durP1;ratioP1;P1;durP2;ratioP2;P2;SDS_P1;SDS_P2;PMS_P1;PMS_P2;Temp;Humidity;BMP_temperature;BMP_pressure;BME280_temperature;BME280_humidity;BME280_pressure;Samples;Min_cycle;Max_cycle;Signal;HPM_P1;HPM_P2
2023/04/20 00:01:02;;;;;;;;;;;;;;;18.37;66.59;99780.46;108149;1285;21967;-64
2023/04/20 00:03:28;;;;;;;;;;;;;;;18.35;66.62;99777.22;108169;1285;23119;-63
2023/04/20 00:05:54;;;;;;;;;;;;;;;18.33;66.68;99776.75;108247;1284;21965;-63
2023/04/20 00:08:21;;;;;;;;;;;;;;;18.34;66.91;99775.13;108199;1285;21977;-63
2023/04/20 00:10:46;;;;;;;;;;;;;;;18.32;67.00;99777.72;108220;1284;22453;-64
2023/04/20 00:13:12;;;;;;;;;;;;;;;18.28;66.91;99773.66;108179;1284;21967;-63
2023/04/20 00:15:38;;;;;;;;;;;;;;;18.23;67.02;99773.41;108213;1277;22014;-63
2023/04/20 00:18:03;;;;;;;;;;;;;;;18.18;67.13;99778.44;108172;1283;21970;-64
2023/04/20 00:20:29;;;;;;;;;;;;;;;18.16;66.98;99781.60;108225;1284;21954;-63
2023/04/20 00:22:55;;;;;;;;;;;;;;;18.12;66.94;99780.55;108153;1285;22008;-64
2023/04/20 00:25:20;;;;;;;;;;;;;;;18.07;66.99;99778.33;108174;1284;21988;-63
2023/04/20 00:27:46;;;;;;;;;;;;;;;18.01;67.09;99776.88;108165;1284;23103;-63
2023/04/20 00:30:12;;;;;;;;;;;;;;;17.95;67.10;99771.80;108167;1284;21960;-62
2023/04/20 00:32:38;;;;;;;;;;;;;;;17.92;67.18;99770.00;108184;1284;21952;-63
2023/04/20 00:35:04;;;;;;;;;;;;;;;17.90;67.24;99766.94;108150;1284;21975;-63
2023/04/20 00:37:29;;;;;;;;;;;;;;;17.87;67.34;99766.56;108149;1285;22719;-63
2023/04/20 00:39:58;;;;;;;;;;;;;;;17.87;67.29;99762.65;108196;1284;21977;-63
2023/04/20 00:42:23;;;;;;;;;;;;;;;17.88;67.34;99762.46;108173;1285;21995;-63
2023/04/20 00:44:49;;;;;;;;;;;;;;;17.87;67.32;99761.25;108159;1284;21988;-63
2023/04/20 00:47:15;;;;;;;;;;;;;;;17.86;67.55;99759.89;108242;1285;21969;-63
2023/04/20 00:49:41;;;;;;;;;;;;;;;17.84;67.63;99760.70;108256;1284;21973;-63
2023/04/20 00:52:06;;;;;;;;;;;;;;;17.83;67.55;99759.14;108168;1285;21971;-63
2023/04/20 00:54:32;;;;;;;;;;;;;;;17.82;67.42;99760.05;108150;1285;22006;-63
2023/04/20 00:56:58;;;;;;;;;;;;;;;17.82;67.29;99758.66;108165;1285;22010;-63
2023/04/20 00:59:23;;;;;;;;;;;;;;;17.80;67.28;99755.38;108226;1285;23713;-63
2023/04/20 01:01:49;;;;;;;;;;;;;;;17.78;67.32;99753.00;108210;1284;21968;-63
2023/04/20 01:04:15;;;;;;;;;;;;;;;17.76;67.10;99757.39;108133;1285;21982;-63
2023/04/20 01:06:41;;;;;;;;;;;;;;;17.72;67.13;99758.98;108195;1284;21987;-63
2023/04/20 01:09:07;;;;;;;;;;;;;;;17.71;67.31;99753.52;108169;1284;21964;-64
2023/04/20 01:11:33;;;;;;;;;;;;;;;17.71;67.36;99753.02;108244;1284;23696;-63
2023/04/20 01:13:59;;;;;;;;;;;;;;;17.71;67.32;99750.54;108317;1285;23500;-64
2023/04/20 01:16:25;;;;;;;;;;;;;;;17.70;67.16;99747.55;108191;1285;21969;-63
2023/04/20 01:18:51;;;;;;;;;;;;;;;17.72;67.25;99749.06;108163;1285;21986;-63
2023/04/20 01:21:18;;;;;;;;;;;;;;;17.73;67.15;99749.36;108144;1285;21961;-64
2023/04/20 01:23:43;;;;;;;;;;;;;;;17.74;67.12;99748.96;108178;1285;21970;-64
2023/04/20 01:26:10;;;;;;;;;;;;;;;17.75;67.10;99749.98;108201;1284;21969;-63
2023/04/20 01:28:35;;;;;;;;;;;;;;;17.74;67.22;99751.98;108169;1285;22813;-64
2023/04/20 01:31:01;;;;;;;;;;;;;;;17.75;67.10;99751.55;108180;1285;22002;-63
2023/04/20 01:33:27;;;;;;;;;;;;;;;17.76;67.09;99750.10;108176;1285;21969;-64
2023/04/20 01:35:53;;;;;;;;;;;;;;;17.68;67.37;99749.80;108173;1285;21967;-63
2023/04/20 01:38:19;;;;;;;;;;;;;;;17.63;67.54;99752.17;108143;1284;23449;-64
2023/04/20 01:40:44;;;;;;;;;;;;;;;17.59;67.65;99748.66;108141;1284;22146;-64
2023/04/20 01:43:10;;;;;;;;;;;;;;;17.56;67.70;99745.09;108299;1283;23487;-63
2023/04/20 01:45:35;;;;;;;;;;;;;;;17.56;67.53;99743.86;108122;1284;23650;-64
2023/04/20 01:48:01;;;;;;;;;;;;;;;17.50;67.67;99740.60;108083;1285;21968;-64
2023/04/20 01:50:26;;;;;;;;;;;;;;;17.45;67.86;99742.77;108108;1285;21968;-63
2023/04/20 01:52:52;;;;;;;;;;;;;;;17.39;68.19;99744.90;108107;1285;22430;-63
2023/04/20 01:55:18;;;;;;;;;;;;;;;17.36;68.17;99743.77;108104;1284;21975;-63
2023/04/20 01:57:43;;;;;;;;;;;;;;;17.32;68.12;99743.09;108157;1285;22438;-63
2023/04/20 02:00:10;;;;;;;;;;;;;;;17.29;68.07;99742.90;108116;1281;23694;-63
2023/04/20 02:02:35;;;;;;;;;;;;;;;17.27;68.03;99743.89;108094;1285;22571;-63
2023/04/20 02:05:01;;;;;;;;;;;;;;;17.23;68.21;99745.30;108179;1285;21961;-65
2023/04/20 02:07:27;;;;;;;;;;;;;;;17.23;68.34;99747.27;108146;1285;21968;-63
2023/04/20 02:09:52;;;;;;;;;;;;;;;17.23;68.46;99747.60;108141;1284;21975;-63
2023/04/20 02:12:18;;;;;;;;;;;;;;;17.28;68.31;99742.79;108057;1284;24961;-63
2023/04/20 02:14:44;;;;;;;;;;;;;;;17.31;68.13;99745.45;108101;1285;22057;-64
2023/04/20 02:17:10;;;;;;;;;;;;;;;17.34;68.17;99746.57;108098;1285;21949;-63
2023/04/20 02:19:35;;;;;;;;;;;;;;;17.36;68.30;99747.83;108165;1285;23017;-62
2023/04/20 02:22:01;;;;;;;;;;;;;;;17.37;68.24;99748.15;108095;1284;21972;-62
2023/04/20 02:24:27;;;;;;;;;;;;;;;17.37;68.21;99745.52;108116;1285;21970;-64
2023/04/20 02:26:52;;;;;;;;;;;;;;;17.37;68.18;99742.86;108086;1284;21996;-63
2023/04/20 02:29:18;;;;;;;;;;;;;;;17.35;68.21;99742.43;108213;1282;21964;-62
2023/04/20 02:31:43;;;;;;;;;;;;;;;17.34;68.18;99747.08;107422;1283;1002298;-63
2023/04/20 02:34:09;;;;;;;;;;;;;;;17.31;68.25;99743.66;108118;1284;21967;-64
2023/04/20 02:36:35;;;;;;;;;;;;;;;17.30;68.28;99744.09;108088;1285;21966;-65
2023/04/20 02:39:01;;;;;;;;;;;;;;;17.29;68.42;99747.15;108168;1284;23637;-63
2023/04/20 02:41:26;;;;;;;;;;;;;;;17.30;68.51;99744.65;108166;1284;21983;-62
2023/04/20 02:43:52;;;;;;;;;;;;;;;17.30;68.64;99742.50;108172;1284;21965;-62
2023/04/20 02:46:17;;;;;;;;;;;;;;;17.28;68.60;99743.11;108184;1285;21968;-63
2023/04/20 02:48:43;;;;;;;;;;;;;;;17.27;68.53;99745.63;108224;1284;21970;-63
2023/04/20 02:51:09;;;;;;;;;;;;;;;17.28;68.47;99744.75;108186;1284;21964;-63
2023/04/20 02:53:34;;;;;;;;;;;;;;;17.28;68.59;99747.56;108164;1285;21973;-63
2023/04/20 02:56:00;;;;;;;;;;;;;;;17.28;68.75;99747.39;108145;1285;22000;-62
2023/04/20 02:58:25;;;;;;;;;;;;;;;17.30;68.92;99750.11;108140;1284;21965;-63
2023/04/20 03:00:51;;;;;;;;;;;;;;;17.31;68.97;99751.45;108189;1285;21964;-62
2023/04/20 03:03:18;;;;;;;;;;;;;;;17.32;68.92;99751.77;108305;1285;21961;-63
2023/04/20 03:05:44;;;;;;;;;;;;;;;17.35;68.93;99753.42;108261;1285;24366;-63
2023/04/20 03:08:10;;;;;;;;;;;;;;;17.37;69.01;99752.80;108319;1284;21975;-63
2023/04/20 03:10:35;;;;;;;;;;;;;;;17.40;69.13;99757.77;108182;1285;21967;-63
2023/04/20 03:13:01;;;;;;;;;;;;;;;17.44;69.12;99756.90;108103;1285;21978;-64
2023/04/20 03:15:26;;;;;;;;;;;;;;;17.46;69.14;99755.01;108092;1285;21965;-63
2023/04/20 03:17:52;;;;;;;;;;;;;;;17.48;69.15;99755.44;108115;1285;21975;-64
2023/04/20 03:20:17;;;;;;;;;;;;;;;17.47;68.96;99752.46;108126;1284;23589;-62
2023/04/20 03:22:43;;;;;;;;;;;;;;;17.47;68.95;99753.70;108084;1284;22433;-62
2023/04/20 03:25:09;;;;;;;;;;;;;;;17.48;69.08;99753.09;108092;1285;21966;-63
2023/04/20 03:27:34;;;;;;;;;;;;;;;17.50;69.23;99752.10;108132;1285;22135;-62
2023/04/20 03:30:00;;;;;;;;;;;;;;;17.53;69.25;99755.17;108130;1285;23530;-62
2023/04/20 03:32:26;;;;;;;;;;;;;;;17.53;69.10;99755.50;108115;1284;23624;-63
2023/04/20 03:34:52;;;;;;;;;;;;;;;17.50;68.96;99760.14;108106;1285;22128;-63
2023/04/20 03:37:17;;;;;;;;;;;;;;;17.45;69.39;99760.75;108175;1285;21972;-65
2023/04/20 03:39:43;;;;;;;;;;;;;;;17.36;69.06;99758.33;108158;1285;21971;-64
2023/04/20 03:42:08;;;;;;;;;;;;;;;17.32;69.31;99757.63;108221;1284;21972;-63
2023/04/20 03:44:34;;;;;;;;;;;;;;;17.32;69.47;99759.23;108184;1285;22221;-64
2023/04/20 03:47:00;;;;;;;;;;;;;;;17.34;69.69;99761.80;108138;1285;21975;-64
2023/04/20 03:49:28;;;;;;;;;;;;;;;17.38;69.77;99763.02;108158;1285;22005;-63
2023/04/20 03:51:53;;;;;;;;;;;;;;;17.41;70.04;99759.84;108121;1284;21967;-63
2023/04/20 03:54:19;;;;;;;;;;;;;;;17.43;70.10;99761.17;108227;1285;23693;-63
2023/04/20 03:56:44;;;;;;;;;;;;;;;17.44;69.99;99760.80;108140;1285;21971;-63
2023/04/20 03:59:10;;;;;;;;;;;;;;;17.44;70.04;99760.98;108131;1284;21973;-63
2023/04/20 04:01:39;;;;;;;;;;;;;;;17.41;70.32;99760.23;108185;1284;21969;-62
2023/04/20 04:04:05;;;;;;;;;;;;;;;17.38;70.60;99761.41;108193;1285;21984;-62
2023/04/20 04:06:31;;;;;;;;;;;;;;;17.39;70.68;99764.02;108172;1284;22177;-64
2023/04/20 04:08:56;;;;;;;;;;;;;;;17.41;70.86;99767.66;108188;1285;21966;-64
2023/04/20 04:11:24;;;;;;;;;;;;;;;17.42;70.78;99765.86;108143;1282;21964;-65
2023/04/20 04:13:50;;;;;;;;;;;;;;;17.44;70.72;99764.86;108173;1285;21968;-63
2023/04/20 04:16:15;;;;;;;;;;;;;;;17.46;70.77;99768.29;108145;1285;21964;-64
2023/04/20 04:18:42;;;;;;;;;;;;;;;17.47;70.77;99767.17;108203;1285;21968;-65
2023/04/20 04:21:09;;;;;;;;;;;;;;;17.47;70.82;99766.98;108211;1285;21978;-65
2023/04/20 04:23:37;;;;;;;;;;;;;;;17.45;70.86;99761.76;108122;1285;23588;-64
2023/04/20 04:26:03;;;;;;;;;;;;;;;17.46;71.03;99768.42;108177;1285;21970;-64
2023/04/20 04:28:30;;;;;;;;;;;;;;;17.48;70.75;99770.84;108134;1285;21970;-64
2023/04/20 04:30:55;;;;;;;;;;;;;;;17.41;70.78;99770.68;108109;1286;22560;-65
2023/04/20 04:33:22;;;;;;;;;;;;;;;17.33;70.31;99770.55;108126;1286;21968;-64
2023/04/20 04:35:48;;;;;;;;;;;;;;;17.33;70.22;99774.26;108111;1285;21972;-63
2023/04/20 04:38:16;;;;;;;;;;;;;;;17.31;70.43;99773.13;108103;1285;21976;-63
2023/04/20 04:40:44;;;;;;;;;;;;;;;17.28;70.63;99775.41;108183;1285;22007;-64
2023/04/20 04:43:10;;;;;;;;;;;;;;;17.22;70.96;99772.52;108154;1285;21974;-64
2023/04/20 04:45:39;;;;;;;;;;;;;;;17.20;71.16;99775.06;108195;1285;21954;-64
2023/04/20 04:48:05;;;;;;;;;;;;;;;17.19;71.36;99779.73;108159;1285;22062;-62
2023/04/20 04:50:31;;;;;;;;;;;;;;;17.16;71.52;99779.19;108186;1284;21952;-63
2023/04/20 04:52:56;;;;;;;;;;;;;;;17.15;71.47;99780.65;108164;1284;21974;-63
2023/04/20 04:55:22;;;;;;;;;;;;;;;17.11;71.47;99779.07;108134;1283;22111;-63
2023/04/20 04:57:47;;;;;;;;;;;;;;;17.08;71.36;99778.48;108134;1284;21968;-64
2023/04/20 05:00:14;;;;;;;;;;;;;;;17.09;71.40;99779.52;108162;1285;21966;-63
2023/04/20 05:02:40;;;;;;;;;;;;;;;17.10;71.57;99780.00;108208;1284;22138;-64
2023/04/20 05:05:07;;;;;;;;;;;;;;;17.12;71.73;99777.61;108205;1284;21963;-64
2023/04/20 05:07:33;;;;;;;;;;;;;;;17.13;71.70;99776.64;108272;1284;21976;-63
2023/04/20 05:09:58;;;;;;;;;;;;;;;17.13;71.47;99779.84;108183;1285;21974;-62
2023/04/20 05:12:24;;;;;;;;;;;;;;;17.16;71.59;99779.18;108190;1285;21974;-61
2023/04/20 05:14:51;;;;;;;;;;;;;;;17.17;71.40;99781.79;108219;1285;21973;-61
2023/04/20 05:17:16;;;;;;;;;;;;;;;17.13;71.27;99782.36;108156;1285;21972;-63
2023/04/20 05:19:42;;;;;;;;;;;;;;;17.05;71.83;99784.30;108180;1285;21964;-63
2023/04/20 05:22:07;;;;;;;;;;;;;;;17.00;72.04;99784.55;108190;1285;21969;-63
2023/04/20 05:24:33;;;;;;;;;;;;;;;17.01;72.11;99785.92;108214;1284;21979;-62
2023/04/20 05:26:59;;;;;;;;;;;;;;;17.03;71.94;99791.50;108148;1284;22057;-64
2023/04/20 05:29:25;;;;;;;;;;;;;;;17.07;71.79;99790.08;108178;1285;21967;-62
2023/04/20 05:31:50;;;;;;;;;;;;;;;17.12;71.13;99797.10;108161;1284;21971;-63
2023/04/20 05:34:16;;;;;;;;;;;;;;;17.10;71.24;99794.34;108142;1285;21978;-62
2023/04/20 05:36:41;;;;;;;;;;;;;;;17.13;71.42;99793.88;108115;1285;23485;-64
2023/04/20 05:39:07;;;;;;;;;;;;;;;17.17;71.47;99797.77;108163;1285;21977;-64
2023/04/20 05:41:32;;;;;;;;;;;;;;;17.15;71.71;99796.08;108176;1285;21973;-65
2023/04/20 05:43:58;;;;;;;;;;;;;;;17.13;71.50;99797.77;107410;1285;1002457;-63
2023/04/20 05:46:23;;;;;;;;;;;;;;;17.11;71.82;99796.06;108245;1285;21974;-63
2023/04/20 05:48:51;;;;;;;;;;;;;;;17.08;71.37;99797.79;108163;1284;21979;-63
2023/04/20 05:51:17;;;;;;;;;;;;;;;17.07;71.45;99798.38;108125;1285;21962;-65
2023/04/20 05:53:43;;;;;;;;;;;;;;;17.07;71.74;99792.88;108252;1285;21964;-65
2023/04/20 05:56:09;;;;;;;;;;;;;;;17.09;71.42;99797.92;108270;1285;21963;-65
2023/04/20 05:58:36;;;;;;;;;;;;;;;17.10;71.45;99797.39;108192;1284;21958;-64
2023/04/20 06:01:03;;;;;;;;;;;;;;;17.16;71.30;99794.94;107403;1285;1002105;-64
2023/04/20 06:03:28;;;;;;;;;;;;;;;17.16;71.31;99791.05;108207;1285;23590;-64
2023/04/20 06:05:54;;;;;;;;;;;;;;;17.15;71.26;99789.16;108180;1284;21958;-66
2023/04/20 06:08:20;;;;;;;;;;;;;;;17.21;71.30;99788.52;108189;1285;21974;-64
2023/04/20 06:10:46;;;;;;;;;;;;;;;17.20;71.63;99789.65;108241;1285;21982;-64
2023/04/20 06:13:12;;;;;;;;;;;;;;;17.17;71.77;99787.25;108156;1284;21961;-64
2023/04/20 06:15:37;;;;;;;;;;;;;;;17.20;71.87;99785.90;108192;1285;22433;-64
2023/04/20 06:18:03;;;;;;;;;;;;;;;17.27;71.73;99782.20;108179;1285;21968;-64
2023/04/20 06:20:28;;;;;;;;;;;;;;;17.30;72.10;99777.95;108236;1285;22087;-64
2023/04/20 06:22:57;;;;;;;;;;;;;;;17.30;71.90;99784.89;108099;1285;21977;-64
2023/04/20 06:25:22;;;;;;;;;;;;;;;17.21;71.78;99785.46;108261;1285;21964;-65
2023/04/20 06:27:48;;;;;;;;;;;;;;;17.21;72.25;99783.55;108123;1285;21967;-63
2023/04/20 06:30:13;;;;;;;;;;;;;;;17.26;72.29;99782.21;108158;1285;21969;-64
2023/04/20 06:32:39;;;;;;;;;;;;;;;17.33;72.68;99779.06;108183;1285;22061;-64
2023/04/20 06:42:02;;;;;;;;;;;;;;;17.53;72.66;99782.80;107529;1292;543754;-63
2023/04/20 06:44:28;;;;;;;;;;;;;;;17.50;72.05;99786.33;107659;1286;21977;-62
2023/04/20 06:46:53;;;;;;;;;;;;;;;17.54;72.31;99782.77;107582;1287;21980;-62
2023/04/20 06:49:19;;;;;;;;;;;;;;;17.57;72.26;99784.22;107615;1294;21984;-63
2023/04/20 06:51:45;;;;;;;;;;;;;;;17.58;72.06;99782.95;107606;1294;21984;-63
2023/04/20 06:54:10;;;;;;;;;;;;;;;17.59;71.86;99785.59;107604;1294;22439;-64
2023/04/20 06:56:36;;;;;;;;;;;;;;;17.60;71.84;99788.73;107641;1289;350709;-63
2023/04/20 06:59:01;;;;;;;;;;;;;;;17.56;71.76;99791.02;107846;1293;21984;-62
2023/04/20 07:01:27;;;;;;;;;;;;;;;17.50;71.51;99788.14;107828;1293;21979;-63
2023/04/20 07:03:52;;;;;;;;;;;;;;;17.43;71.53;99786.91;107923;1293;21988;-64
2023/04/20 07:06:18;;;;;;;;;;;;;;;17.37;71.72;99789.31;107856;1289;22014;-63
2023/04/20 07:08:44;;;;;;;;;;;;;;;17.34;71.98;99787.30;107751;1284;21974;-64
2023/04/20 07:11:09;;;;;;;;;;;;;;;17.35;72.16;99786.41;107814;1292;21966;-63
2023/04/20 07:13:35;;;;;;;;;;;;;;;17.34;72.29;99787.30;107818;1291;21972;-63
2023/04/20 07:16:01;;;;;;;;;;;;;;;17.33;72.37;99788.44;107624;1291;21930;-63
2023/04/20 07:18:27;;;;;;;;;;;;;;;17.33;72.46;99790.56;107647;1291;21990;-65
2023/04/20 07:20:52;;;;;;;;;;;;;;;17.32;72.70;99791.86;107680;1291;21982;-65
2023/04/20 07:23:19;;;;;;;;;;;;;;;17.30;72.55;99797.27;107796;1289;21977;-63
2023/04/20 07:25:44;;;;;;;;;;;;;;;17.23;72.77;99800.64;107683;1291;23589;-65
2023/04/20 07:28:10;;;;;;;;;;;;;;;17.19;73.34;99799.98;107668;1290;21971;-65
2023/04/20 07:30:35;;;;;;;;;;;;;;;17.14;72.92;99798.05;107690;1291;21971;-65
2023/04/20 07:33:01;;;;;;;;;;;;;;;17.13;72.86;99797.59;107749;1290;21983;-66
2023/04/20 07:35:26;;;;;;;;;;;;;;;17.09;73.72;99801.33;107899;1291;23660;-65
2023/04/20 07:37:52;;;;;;;;;;;;;;;17.00;73.96;99799.96;107732;1291;22282;-64
2023/04/20 07:40:17;;;;;;;;;;;;;;;17.04;73.56;99802.59;107657;1291;22028;-65
2023/04/20 07:42:43;;;;;;;;;;;;;;;17.07;73.78;99803.72;107655;1289;21974;-63
2023/04/20 07:45:09;;;;;;;;;;;;;;;17.06;74.24;99802.49;107895;1291;21972;-66
2023/04/20 07:47:35;;;;;;;;;;;;;;;17.06;74.04;99803.20;107841;1288;21975;-63
2023/04/20 07:50:02;;;;;;;;;;;;;;;17.09;73.77;99800.61;107766;1291;21980;-64
2023/04/20 07:52:27;;;;;;;;;;;;;;;17.14;74.04;99800.74;107635;1291;22009;-64
2023/04/20 07:54:54;;;;;;;;;;;;;;;17.18;74.33;99796.81;107590;1291;22151;-66
2023/04/20 07:57:20;;;;;;;;;;;;;;;17.25;74.50;99796.14;107651;1291;21997;-65
2023/04/20 07:59:45;;;;;;;;;;;;;;;17.34;74.60;99795.31;107610;1288;22149;-64
2023/04/20 08:02:11;;;;;;;;;;;;;;;17.39;75.49;99801.43;107612;1288;22440;-64
2023/04/20 08:04:37;;;;;;;;;;;;;;;17.46;76.02;99798.08;107842;1283;21991;-64
2023/04/20 08:07:03;;;;;;;;;;;;;;;17.55;75.75;99797.83;107805;1291;22014;-66
2023/04/20 08:09:28;;;;;;;;;;;;;;;17.62;74.87;99796.24;107805;1291;23597;-65
2023/04/20 08:11:55;;;;;;;;;;;;;;;17.64;74.90;99795.76;106899;1291;1002486;-65
2023/04/20 08:14:21;;;;;;;;;;;;;;;17.65;74.43;99796.09;107582;1291;21973;-64
2023/04/20 08:16:46;;;;;;;;;;;;;;;17.64;74.26;99795.93;107736;1287;21982;-64
2023/04/20 08:19:12;;;;;;;;;;;;;;;17.60;74.01;99795.81;107872;1291;21981;-64
2023/04/20 08:21:37;;;;;;;;;;;;;;;17.58;74.07;99796.61;107614;1291;22015;-63
2023/04/20 08:24:03;;;;;;;;;;;;;;;17.58;74.74;99794.15;107637;1291;22769;-67
2023/04/20 08:26:30;;;;;;;;;;;;;;;17.59;74.87;99796.40;107635;1291;22177;-64
2023/04/20 08:28:55;;;;;;;;;;;;;;;17.57;74.38;99796.83;107882;1285;21979;-64
2023/04/20 08:31:21;;;;;;;;;;;;;;;17.60;74.45;99795.97;107828;1290;21974;-65
2023/04/20 08:33:46;;;;;;;;;;;;;;;17.64;74.37;99795.23;107803;1290;21984;-64
2023/04/20 08:36:12;;;;;;;;;;;;;;;17.67;74.25;99798.63;107812;1287;22051;-64
2023/04/20 08:38:37;;;;;;;;;;;;;;;17.70;74.22;99799.02;107784;1290;21979;-63
2023/04/20 08:41:03;;;;;;;;;;;;;;;17.73;74.42;99799.40;107803;1290;21983;-65
2023/04/20 08:43:29;;;;;;;;;;;;;;;17.70;74.40;99796.70;107825;1290;23599;-63
2023/04/20 08:45:56;;;;;;;;;;;;;;;17.66;74.64;99794.62;107912;1290;23624;-65
2023/04/20 08:48:22;;;;;;;;;;;;;;;17.67;74.10;99795.38;107911;1290;22016;-65
2023/04/20 08:50:49;;;;;;;;;;;;;;;17.69;74.38;99796.91;107797;1289;22015;-64
2023/04/20 08:53:14;;;;;;;;;;;;;;;17.71;74.54;99795.94;107909;1290;22039;-64
2023/04/20 08:55:40;;;;;;;;;;;;;;;17.75;74.96;99798.06;107886;1290;21975;-64
2023/04/20 08:58:06;;;;;;;;;;;;;;;17.75;74.88;99794.69;107882;1289;23628;-64
2023/04/20 09:00:32;;;;;;;;;;;;;;;17.77;74.11;99796.36;107820;1290;21976;-65
2023/04/20 09:02:59;;;;;;;;;;;;;;;17.76;73.82;99795.86;107889;1290;22011;-64
2023/04/20 09:05:28;;;;;;;;;;;;;;;17.73;73.65;99791.95;107822;1290;23704;-64
2023/04/20 09:07:57;;;;;;;;;;;;;;;17.74;74.04;99791.37;107822;1290;21984;-64
2023/04/20 09:10:23;;;;;;;;;;;;;;;17.77;74.35;99786.39;107760;1290;22439;-64
2023/04/20 09:12:48;;;;;;;;;;;;;;;17.87;74.93;99783.03;107711;1290;21977;-63
2023/04/20 09:15:30;;;;;;;;;;;;;;;17.97;74.59;99783.63;107794;1290;21979;-64
2023/04/20 09:17:55;;;;;;;;;;;;;;;18.04;74.68;99786.86;108040;1287;21985;-66
2023/04/20 09:20:28;;;;;;;;;;;;;;;18.03;74.53;99789.20;107981;1290;22322;-65
2023/04/20 09:22:53;;;;;;;;;;;;;;;17.92;74.13;99790.43;107999;1290;21971;-65
2023/04/20 09:25:20;;;;;;;;;;;;;;;17.82;74.45;99788.80;108024;1287;24932;-64
2023/04/20 09:27:59;;;;;;;;;;;;;;;17.72;74.86;99791.63;108146;1290;23702;-65
2023/04/20 09:30:24;;;;;;;;;;;;;;;17.66;74.50;99789.63;108265;1290;21944;-66
2023/04/20 09:33:02;;;;;;;;;;;;;;;17.63;75.58;99788.02;108039;1290;23170;-66
2023/04/20 09:35:28;;;;;;;;;;;;;;;17.59;75.53;99786.96;107874;1290;21988;-66
2023/04/20 09:37:54;;;;;;;;;;;;;;;17.60;75.44;99786.21;107765;1290;23610;-66
2023/04/20 09:40:20;;;;;;;;;;;;;;;17.66;76.12;99781.29;107805;1286;21976;-65
2023/04/20 09:42:47;;;;;;;;;;;;;;;17.72;76.33;99781.20;107788;1290;21979;-64
2023/04/20 09:45:13;;;;;;;;;;;;;;;17.73;76.61;99779.88;107801;1290;21971;-66
2023/04/20 09:47:41;;;;;;;;;;;;;;;17.68;76.57;99785.62;107809;1290;21977;-65
2023/04/20 09:50:09;;;;;;;;;;;;;;;17.63;75.67;99786.77;107883;1290;23692;-65
2023/04/20 09:52:36;;;;;;;;;;;;;;;17.59;75.75;99789.65;107957;1290;24343;-64
2023/04/20 09:55:01;;;;;;;;;;;;;;;17.52;76.65;99787.70;107809;1290;21986;-63
2023/04/20 09:57:27;;;;;;;;;;;;;;;17.50;76.59;99785.64;107787;1290;23641;-66
2023/04/20 09:59:52;;;;;;;;;;;;;;;17.51;76.89;99788.83;107773;1290;21978;-63
2023/04/20 10:02:18;;;;;;;;;;;;;;;17.55;76.83;99789.67;107838;1290;21977;-63
2023/04/20 10:04:51;;;;;;;;;;;;;;;17.58;76.47;99790.95;107949;1290;23015;-63
2023/04/20 10:07:27;;;;;;;;;;;;;;;17.57;75.98;99792.39;107926;1290;21977;-67
2023/04/20 10:10:12;;;;;;;;;;;;;;;17.59;75.56;99790.34;107890;1290;22027;-66
2023/04/20 10:12:46;;;;;;;;;;;;;;;17.55;76.00;99790.90;107972;1290;21976;-63
2023/04/20 10:15:12;;;;;;;;;;;;;;;17.47;76.14;99790.60;107800;1290;21969;-65
2023/04/20 10:17:38;;;;;;;;;;;;;;;17.57;75.47;99793.46;107862;1290;23455;-67
2023/04/20 10:20:04;;;;;;;;;;;;;;;17.60;75.75;99796.14;107868;1290;23607;-65
2023/04/20 10:22:34;;;;;;;;;;;;;;;17.64;75.39;99797.71;107849;1290;23615;-64
2023/04/20 10:25:00;;;;;;;;;;;;;;;17.66;75.40;99802.20;107803;1290;21974;-65
2023/04/20 10:27:25;;;;;;;;;;;;;;;17.62;75.58;99804.02;107851;1290;22143;-64
2023/04/20 10:29:51;;;;;;;;;;;;;;;17.61;75.06;99800.89;107911;1290;21976;-63
2023/04/20 10:32:26;;;;;;;;;;;;;;;17.57;75.32;99803.75;107774;1290;21971;-65
2023/04/20 10:35:02;;;;;;;;;;;;;;;17.52;75.36;99801.84;107732;1290;21974;-64
2023/04/20 10:37:28;;;;;;;;;;;;;;;17.49;75.34;99800.23;107962;1290;22006;-66
2023/04/20 10:39:53;;;;;;;;;;;;;;;17.49;75.21;99800.45;107924;1290;21983;-65
2023/04/20 10:42:19;;;;;;;;;;;;;;;17.48;75.54;99796.60;107857;1290;21972;-65
2023/04/20 10:44:48;;;;;;;;;;;;;;;17.50;76.04;99797.17;107833;1286;21980;-65
2023/04/20 10:47:14;;;;;;;;;;;;;;;17.52;76.25;99795.80;107853;1290;21976;-65
2023/04/20 10:49:39;;;;;;;;;;;;;;;17.57;75.94;99795.60;107851;1290;22051;-64
2023/04/20 10:52:05;;;;;;;;;;;;;;;17.58;76.38;99796.96;107822;1290;21978;-65
2023/04/20 10:54:38;;;;;;;;;;;;;;;17.58;76.19;99799.98;107874;1290;21976;-63
2023/04/20 10:57:04;;;;;;;;;;;;;;;17.62;77.16;99800.82;107936;1290;22052;-65
2023/04/20 10:59:30;;;;;;;;;;;;;;;17.62;76.57;99802.46;108077;1290;22007;-64
2023/04/20 11:02:00;;;;;;;;;;;;;;;17.61;75.95;99802.15;107878;1286;21971;-66
2023/04/20 11:04:29;;;;;;;;;;;;;;;17.60;75.69;99807.68;108055;1290;21991;-64
2023/04/20 11:07:02;;;;;;;;;;;;;;;17.58;75.58;99809.22;108016;1290;21971;-63
2023/04/20 11:09:28;;;;;;;;;;;;;;;17.57;75.43;99807.69;107852;1290;21972;-63
2023/04/20 11:12:00;;;;;;;;;;;;;;;17.53;75.30;99807.11;107775;1290;21979;-63
2023/04/20 11:14:26;;;;;;;;;;;;;;;17.52;74.91;99806.45;107781;1289;21971;-63
2023/04/20 11:16:52;;;;;;;;;;;;;;;17.51;74.42;99807.04;107845;1290;21971;-63
2023/04/20 11:19:21;;;;;;;;;;;;;;;17.46;74.01;99809.40;107952;1286;21992;-64
2023/04/20 11:21:47;;;;;;;;;;;;;;;17.42;74.25;99802.71;107875;1290;23995;-63
2023/04/20 11:24:17;;;;;;;;;;;;;;;17.40;74.41;99800.18;107846;1287;21978;-65
2023/04/20 11:26:43;;;;;;;;;;;;;;;17.40;74.61;99800.00;107823;1290;22154;-63
2023/04/20 11:29:10;;;;;;;;;;;;;;;17.44;75.99;99796.98;107773;1290;21974;-63
2023/04/20 11:31:36;;;;;;;;;;;;;;;17.49;75.73;99799.16;107980;1290;22195;-65
2023/04/20 11:34:02;;;;;;;;;;;;;;;17.57;76.34;99793.45;108034;1287;22828;-65
2023/04/20 11:36:29;;;;;;;;;;;;;;;17.67;76.57;99792.77;107818;1290;22036;-63
2023/04/20 11:39:05;;;;;;;;;;;;;;;17.73;76.49;99788.20;107751;1290;21987;-65
2023/04/20 11:41:31;;;;;;;;;;;;;;;17.82;75.97;99785.61;107697;1290;22009;-64
2023/04/20 11:43:56;;;;;;;;;;;;;;;17.79;75.61;99784.70;107735;1290;23285;-61
2023/04/20 11:46:22;;;;;;;;;;;;;;;17.68;74.70;99786.35;107787;1290;21971;-64
2023/04/20 11:48:48;;;;;;;;;;;;;;;17.54;74.54;99786.16;107826;1290;21978;-63
2023/04/20 11:51:14;;;;;;;;;;;;;;;17.42;74.68;99783.05;107849;1290;21973;-61
2023/04/20 11:53:40;;;;;;;;;;;;;;;17.35;75.13;99779.13;107821;1290;21995;-61
2023/04/20 11:56:06;;;;;;;;;;;;;;;17.30;75.41;99780.24;107803;1290;22436;-61
2023/04/20 11:58:31;;;;;;;;;;;;;;;17.29;75.49;99779.42;107854;1290;21977;-61
2023/04/20 12:00:58;;;;;;;;;;;;;;;17.30;76.04;99775.99;107839;1290;21964;-62
2023/04/20 12:03:25;;;;;;;;;;;;;;;17.40;76.35;99774.64;107822;1289;21980;-62
2023/04/20 12:05:50;;;;;;;;;;;;;;;17.54;77.27;99770.58;107857;1290;22017;-61
2023/04/20 12:08:16;;;;;;;;;;;;;;;17.71;77.34;99767.19;107858;1289;21970;-63
2023/04/20 12:10:42;;;;;;;;;;;;;;;17.85;76.91;99768.29;107841;1290;23157;-62
2023/04/20 12:13:07;;;;;;;;;;;;;;;17.86;75.57;99769.48;107822;1290;21966;-64
2023/04/20 12:15:33;;;;;;;;;;;;;;;17.82;74.76;99767.89;107800;1290;21976;-64
2023/04/20 12:17:58;;;;;;;;;;;;;;;17.77;74.76;99764.58;107893;1290;21974;-63
2023/04/20 12:20:24;;;;;;;;;;;;;;;17.75;74.64;99765.23;107933;1290;23598;-62
2023/04/20 12:22:49;;;;;;;;;;;;;;;17.72;74.66;99762.89;107868;1286;21997;-62
2023/04/20 12:25:15;;;;;;;;;;;;;;;17.70;74.77;99759.45;107817;1290;21986;-62
2023/04/20 12:27:41;;;;;;;;;;;;;;;17.66;74.25;99756.81;107687;1290;21977;-63
2023/04/20 12:30:08;;;;;;;;;;;;;;;17.65;74.21;99760.61;109946;1283;21953;-63
2023/04/20 12:32:34;;;;;;;;;;;;;;;17.63;74.27;99760.16;108263;1290;23298;-63
2023/04/20 12:34:59;;;;;;;;;;;;;;;17.62;74.85;99759.70;107856;1289;23075;-63
2023/04/20 12:37:26;;;;;;;;;;;;;;;17.65;75.34;99758.28;107777;1290;21992;-63